createdAt,value
2022-09-21T00:01:27.416Z,99017.22
2022-09-21T00:03:57.557Z,99023.38
2022-09-21T00:06:25.170Z,99028.56
2022-09-21T00:08:51.763Z,99028.56
2022-09-21T00:11:20.056Z,99027.66
2022-09-21T00:13:46.739Z,99022.44
2022-09-21T00:16:13.924Z,99024.22
2022-09-21T00:18:40.557Z,99025.06
2022-09-21T00:21:11.503Z,99029.41
2022-09-21T00:23:38.043Z,99023.44
2022-09-21T00:26:09.979Z,99026.91
2022-09-21T00:28:36.521Z,99020.75
2022-09-21T00:31:07.638Z,99020.75
2022-09-21T00:33:34.282Z,99023.38
2022-09-21T00:36:05.145Z,99017.53
2022-09-21T00:38:31.978Z,99019.13
2022-09-21T00:40:58.607Z,99029.50
2022-09-21T00:43:25.246Z,99033.78
2022-09-21T00:45:54.768Z,99027.81
2022-09-21T00:48:21.330Z,99033.78
2022-09-21T00:50:49.719Z,99029.53
2022-09-21T00:53:16.428Z,99039.97
2022-09-21T00:55:51.998Z,99031.25
2022-09-21T00:58:21.658Z,99029.53
2022-09-21T01:00:48.441Z,99012.84
2022-09-21T01:03:14.958Z,99034.75
2022-09-21T01:05:41.536Z,99031.25
2022-09-21T01:08:08.127Z,99033.91
2022-09-21T01:10:46.876Z,99031.31
2022-09-21T01:13:19.201Z,99040.84
2022-09-21T01:15:48.629Z,99038.25
2022-09-21T01:18:33.296Z,99038.25
2022-09-21T01:21:11.447Z,99040.91
2022-09-21T01:23:57.115Z,99044.34
2022-09-21T01:26:32.646Z,99041.72
2022-09-21T01:29:02.217Z,99044.34
2022-09-21T01:31:34.122Z,99040.97
2022-09-21T01:34:05.922Z,99030.72
2022-09-21T01:36:32.575Z,99039.13
2022-09-21T01:39:08.675Z,99030.69
2022-09-21T01:41:35.474Z,99039.13
2022-09-21T01:44:08.498Z,99042.66
2022-09-21T01:46:35.141Z,99044.34
2022-09-21T01:49:17.016Z,99051.28
2022-09-21T01:51:50.392Z,99041.81
2022-09-21T01:54:25.729Z,99040.97
2022-09-21T01:56:59.592Z,99038.38
2022-09-21T01:59:36.036Z,99051.41
2022-09-21T02:02:14.043Z,99054.00
2022-09-21T02:04:40.527Z,99052.25
2022-09-21T02:07:07.551Z,99047.88
2022-09-21T02:09:35.557Z,99053.22
2022-09-21T02:12:02.228Z,99046.44
2022-09-21T02:14:28.911Z,99053.22
2022-09-21T02:17:15.493Z,99061.94
2022-09-21T02:20:01.597Z,99050.59
2022-09-21T02:22:40.837Z,99051.41
2022-09-21T02:25:16.238Z,99046.22
2022-09-21T02:28:33.862Z,99043.63
2022-09-21T02:31:27.680Z,99044.47
2022-09-21T02:34:05.289Z,99039.38
2022-09-21T02:36:35.592Z,99047.16
2022-09-21T02:39:16.101Z,99050.53
2022-09-21T02:42:09.240Z,99045.31
2022-09-21T02:44:40.736Z,99053.28
2022-09-21T02:47:13.223Z,99048.84
2022-09-21T02:49:42.457Z,99060.19
2022-09-21T02:52:12.331Z,99054.91
2022-09-21T02:54:39.014Z,99048.94
2022-09-21T02:57:05.518Z,99053.22
2022-09-21T02:59:32.198Z,99047.16
2022-09-21T03:01:58.736Z,99047.91
2022-09-21T03:04:25.289Z,99046.31
2022-09-21T03:06:51.782Z,99051.53
2022-09-21T03:09:18.572Z,99039.53
2022-09-21T03:11:45.057Z,99055.75
2022-09-21T03:14:11.536Z,99050.72
2022-09-21T03:16:38.382Z,99060.25
2022-09-21T03:19:05.119Z,99054.25
2022-09-21T03:21:31.924Z,99059.41
2022-09-21T03:23:58.596Z,99066.25
2022-09-21T03:26:25.289Z,99065.44
2022-09-21T03:28:53.435Z,99068.00
2022-09-21T03:31:20.026Z,99071.59
2022-09-21T03:33:46.617Z,99072.38
2022-09-21T03:36:13.085Z,99070.66
2022-09-21T03:38:39.683Z,99074.91
2022-09-21T03:41:06.319Z,99066.31
2022-09-21T03:43:32.926Z,99065.44
2022-09-21T03:45:59.484Z,99076.75
2022-09-21T03:48:26.003Z,99067.22
2022-09-21T03:50:52.455Z,99075.88
2022-09-21T03:53:19.068Z,99072.50
2022-09-21T03:55:45.524Z,99076.78
2022-09-21T03:58:11.956Z,99080.19
2022-09-21T04:00:39.167Z,99080.38
2022-09-21T04:03:05.703Z,99078.47
2022-09-21T04:05:32.363Z,99087.22
2022-09-21T04:08:01.962Z,99073.47
2022-09-21T04:10:32.695Z,99090.78
2022-09-21T04:13:01.164Z,99100.25
2022-09-21T04:15:27.803Z,99087.28
2022-09-21T04:17:54.298Z,99093.34
2022-09-21T04:20:21.218Z,99090.75
2022-09-21T04:22:47.747Z,99098.56
2022-09-21T04:25:14.411Z,99083.06
2022-09-21T04:27:41.146Z,99088.13
2022-09-21T04:30:08.439Z,99095.88
2022-09-21T04:32:34.905Z,99096.84
2022-09-21T04:35:01.555Z,99100.25
2022-09-21T04:37:28.109Z,99104.63
2022-09-21T04:39:54.644Z,99103.06
2022-09-21T04:42:21.099Z,99106.28
2022-09-21T04:44:47.523Z,99112.44
2022-09-21T04:47:14.588Z,99113.41
2022-09-21T04:49:41.364Z,99119.53
2022-09-21T04:52:08.052Z,99121.22
2022-09-21T04:54:34.828Z,99120.50
2022-09-21T04:57:01.496Z,99125.78
2022-09-21T04:59:30.650Z,99128.50
2022-09-21T05:01:57.178Z,99125.94
2022-09-21T05:04:23.785Z,99122.63
2022-09-21T05:06:52.856Z,99135.59
2022-09-21T05:09:37.954Z,99125.22
2022-09-21T05:12:04.798Z,99138.13
2022-09-21T05:14:31.419Z,99138.25
2022-09-21T05:16:57.963Z,99137.63
2022-09-21T05:19:24.440Z,99142.94
2022-09-21T05:21:50.999Z,99143.06
2022-09-21T05:24:17.767Z,99146.44
2022-09-21T05:26:44.209Z,99142.25
2022-09-21T05:29:10.992Z,99148.41
2022-09-21T05:31:56.366Z,99145.00
2022-09-21T05:34:36.803Z,99145.47
2022-09-21T05:37:32.220Z,99148.31
2022-09-21T05:39:59.020Z,99153.66
2022-09-21T05:42:25.938Z,99154.53
2022-09-21T05:44:53.530Z,99158.81
2022-09-21T05:47:23.251Z,99166.47
2022-09-21T05:50:05.719Z,99163.16
2022-09-21T05:52:41.007Z,99159.91
2022-09-21T05:55:15.370Z,99164.31
2022-09-21T05:57:54.164Z,99164.25
2022-09-21T06:00:24.034Z,99163.34
2022-09-21T06:03:29.259Z,99173.69
2022-09-21T06:05:56.438Z,99170.19
2022-09-21T06:08:23.260Z,99172.84
2022-09-21T06:10:49.796Z,99163.28
2022-09-21T06:13:16.319Z,99165.88
2022-09-21T06:15:42.880Z,99172.00
2022-09-21T06:18:11.299Z,99177.22
2022-09-21T06:20:39.723Z,99178.91
2022-09-21T06:23:08.261Z,99168.59
2022-09-21T06:25:34.905Z,99178.06
2022-09-21T06:28:05.292Z,99173.69
2022-09-21T06:30:34.459Z,99178.00
2022-09-21T06:33:01.263Z,99174.69
2022-09-21T06:35:31.697Z,99174.59
2022-09-21T06:37:59.597Z,99178.06
2022-09-21T06:40:27.761Z,99172.31
2022-09-21T06:43:01.386Z,99178.06
2022-09-21T06:45:28.668Z,99172.84
2022-09-21T06:47:55.200Z,99175.41
2022-09-21T06:50:21.770Z,99172.84
2022-09-21T06:52:48.424Z,99182.31
2022-09-21T06:55:15.270Z,99188.34
2022-09-21T06:57:41.787Z,99183.25
2022-09-21T07:00:10.056Z,99185.03
2022-09-21T07:02:36.578Z,99186.66
2022-09-21T07:05:03.326Z,99194.47
2022-09-21T07:07:33.314Z,99192.72
2022-09-21T07:10:13.186Z,99198.00
2022-09-21T07:12:41.419Z,99192.00
2022-09-21T07:15:09.168Z,99199.63
2022-09-21T07:17:37.373Z,99197.09
2022-09-21T07:20:04.560Z,99201.38
2022-09-21T07:22:32.102Z,99203.16
2022-09-21T07:24:58.646Z,99204.00
2022-09-21T07:27:25.503Z,99191.88
2022-09-21T07:29:52.271Z,99183.38
2022-09-21T07:32:19.022Z,99204.81
2022-09-21T07:34:46.489Z,99195.25
2022-09-21T07:37:13.549Z,99203.16
2022-09-21T07:39:40.077Z,99205.63
2022-09-21T07:42:06.799Z,99198.72
2022-09-21T07:44:34.151Z,99197.94
2022-09-21T07:47:02.275Z,99198.78
2022-09-21T07:49:28.788Z,99203.16
2022-09-21T07:51:56.127Z,99197.84
2022-09-21T07:54:23.879Z,99194.41
2022-09-21T07:57:08.910Z,99199.75
2022-09-21T07:59:35.442Z,99199.63
2022-09-21T08:02:02.003Z,99201.34
2022-09-21T08:04:28.645Z,99201.34
2022-09-21T08:06:55.638Z,99207.38
2022-09-21T08:09:22.370Z,99203.94
2022-09-21T08:11:49.038Z,99202.19
2022-09-21T08:14:22.424Z,99190.13
2022-09-21T08:16:51.966Z,99204.78
2022-09-21T08:19:18.904Z,99199.63
2022-09-21T08:21:45.776Z,99202.19
2022-09-21T08:24:12.305Z,99197.69
2022-09-21T08:26:38.749Z,99201.97
2022-09-21T08:29:07.020Z,99200.28
2022-09-21T08:31:33.572Z,99195.84
2022-09-21T08:34:01.019Z,99202.78
2022-09-21T08:36:27.544Z,99196.78
2022-09-21T08:38:55.148Z,99202.81
2022-09-21T08:41:26.509Z,99195.00
2022-09-21T08:44:14.011Z,99201.97
2022-09-21T08:46:40.709Z,99202.91
2022-09-21T08:49:11.718Z,99204.66
2022-09-21T08:51:42.342Z,99202.91
2022-09-21T08:54:29.751Z,99195.09
2022-09-21T08:57:11.516Z,99195.09
2022-09-21T08:59:38.196Z,99208.13
2022-09-21T09:02:30.723Z,99194.28
2022-09-21T09:05:17.798Z,99201.13
2022-09-21T09:08:03.350Z,99206.28
2022-09-21T09:10:41.874Z,99201.97
2022-09-21T09:13:28.544Z,99204.59
2022-09-21T09:16:13.788Z,99210.66
2022-09-21T09:19:00.939Z,99202.81
2022-09-21T09:21:32.205Z,99203.75
2022-09-21T09:24:17.369Z,99200.19
2022-09-21T09:26:52.955Z,99204.47
2022-09-21T09:29:50.368Z,99202.69
2022-09-21T09:32:17.247Z,99207.03
2022-09-21T09:34:55.623Z,99205.31
2022-09-21T09:37:25.094Z,99201.88
2022-09-21T09:39:54.773Z,99200.19
2022-09-21T09:42:26.656Z,99195.94
2022-09-21T09:45:11.772Z,99186.31
2022-09-21T09:47:58.069Z,99193.19
2022-09-21T09:50:33.660Z,99185.44
2022-09-21T09:53:06.163Z,99178.50
2022-09-21T09:55:41.996Z,99178.41
2022-09-21T09:58:22.374Z,99178.41
2022-09-21T10:00:52.024Z,99186.22
2022-09-21T10:03:20.925Z,99175.00
2022-09-21T10:05:47.433Z,99176.78
2022-09-21T10:08:44.298Z,99173.19
2022-09-21T10:11:11.719Z,99167.16
2022-09-21T10:13:39.984Z,99174.97
2022-09-21T10:16:19.693Z,99159.53
2022-09-21T10:19:01.358Z,99166.31
2022-09-21T10:21:38.133Z,99157.69
2022-09-21T10:24:06.524Z,99156.78
2022-09-21T10:26:50.453Z,99158.50
2022-09-21T10:29:28.235Z,99153.19
2022-09-21T10:32:06.866Z,99145.72
2022-09-21T10:34:35.511Z,99152.34
2022-09-21T10:37:03.493Z,99149.75
2022-09-21T10:39:33.760Z,99147.13
2022-09-21T10:42:07.661Z,99143.69
2022-09-21T10:44:46.519Z,99139.41
2022-09-21T10:47:32.830Z,99135.94
2022-09-21T10:50:01.416Z,99139.41
2022-09-21T10:52:42.439Z,99141.94
2022-09-21T10:55:20.918Z,99140.25
2022-09-21T10:57:47.536Z,99139.41
2022-09-21T11:00:35.301Z,99143.69
2022-09-21T11:03:06.691Z,99132.56
2022-09-21T11:05:34.664Z,99135.03
2022-09-21T11:08:14.307Z,99134.97
2022-09-21T11:10:48.991Z,99124.75
2022-09-21T11:13:43.556Z,99136.72
2022-09-21T11:16:31.616Z,99127.97
2022-09-21T11:19:00.390Z,99124.63
2022-09-21T11:21:39.133Z,99131.38
2022-09-21T11:24:28.703Z,99126.28
2022-09-21T11:27:18.131Z,99122.00
2022-09-21T11:30:07.150Z,99127.97
2022-09-21T11:33:02.235Z,99126.16
2022-09-21T11:36:08.851Z,99120.97
2022-09-21T11:38:42.646Z,99116.59
2022-09-21T11:41:49.939Z,99111.34
2022-09-21T11:44:38.250Z,99112.19
2022-09-21T11:47:30.770Z,99105.19
2022-09-21T11:50:26.021Z,99104.34
2022-09-21T11:53:25.359Z,99103.50
2022-09-21T11:56:14.022Z,99100.97
2022-09-21T11:58:53.096Z,99093.97
2022-09-21T12:01:36.916Z,99100.91
2022-09-21T12:04:41.015Z,99093.97
2022-09-21T12:07:39.977Z,99087.88
2022-09-21T12:10:26.963Z,99086.97
2022-09-21T12:13:13.710Z,99087.81
2022-09-21T12:15:47.928Z,99084.28
2022-09-21T12:18:34.435Z,99082.59
2022-09-21T12:21:13.144Z,99082.59
2022-09-21T12:23:48.877Z,99080.91
2022-09-21T12:26:18.382Z,99082.53
2022-09-21T12:28:47.872Z,99073.84
2022-09-21T12:31:20.084Z,99068.63
2022-09-21T12:33:56.795Z,99070.41
2022-09-21T12:36:35.959Z,99074.72
2022-09-21T12:39:13.732Z,99077.34
2022-09-21T12:41:53.714Z,99077.38
2022-09-21T12:44:54.229Z,99065.28
2022-09-21T12:47:59.764Z,99056.53
2022-09-21T12:50:44.471Z,99048.78
2022-09-21T12:53:30.765Z,99053.09
2022-09-21T12:56:01.118Z,99059.13
2022-09-21T12:58:53.836Z,99056.63
2022-09-21T13:01:32.919Z,99054.72
2022-09-21T13:04:41.758Z,99052.94
2022-09-21T13:07:13.106Z,99056.31
2022-09-21T13:09:41.842Z,99046.91
2022-09-21T13:12:17.146Z,99047.78
2022-09-21T13:14:48.674Z,99041.59
2022-09-21T13:17:23.595Z,99047.66
2022-09-21T13:20:02.301Z,99040.75
2022-09-21T13:22:34.853Z,99041.69
2022-09-21T13:25:13.507Z,99041.59
2022-09-21T13:28:01.576Z,99037.31
2022-09-21T13:30:32.158Z,99030.47
2022-09-21T13:32:58.761Z,99035.63
2022-09-21T13:35:50.095Z,99031.31
2022-09-21T13:38:23.544Z,99031.25
2022-09-21T13:40:56.263Z,99032.94
2022-09-21T13:43:23.605Z,99033.88
2022-09-21T13:45:54.515Z,99027.72
2022-09-21T13:48:27.182Z,99024.28
2022-09-21T13:50:57.737Z,99024.22
2022-09-21T13:53:28.498Z,99021.69
2022-09-21T13:56:00.466Z,99016.47
2022-09-21T13:58:32.746Z,99016.47
2022-09-21T14:01:02.468Z,98991.72
2022-09-21T14:03:47.275Z,99012.09
2022-09-21T14:06:28.025Z,99010.34
2022-09-21T14:09:16.778Z,99013.75
2022-09-21T14:11:45.122Z,99004.38
2022-09-21T14:14:12.193Z,99012.03
2022-09-21T14:16:39.467Z,99011.16
2022-09-21T14:19:32.906Z,99011.16
2022-09-21T14:22:05.432Z,99002.41
2022-09-21T14:24:49.853Z,99000.72
2022-09-21T14:27:26.009Z,99006.78
2022-09-21T14:29:59.333Z,99003.34
2022-09-21T14:32:28.396Z,99000.59
2022-09-21T14:34:58.802Z,99001.50
2022-09-21T14:37:31.705Z,98990.31
2022-09-21T14:39:58.400Z,98994.47
2022-09-21T14:42:28.223Z,98994.59
2022-09-21T14:45:03.924Z,98994.47
2022-09-21T14:47:36.493Z,98998.75
2022-09-21T14:50:07.509Z,98998.75
2022-09-21T14:53:14.167Z,98993.53
2022-09-21T14:55:47.234Z,98987.56
2022-09-21T14:58:55.327Z,98994.38
2022-09-21T15:01:36.803Z,98994.38
2022-09-21T15:04:17.563Z,98984.97
2022-09-21T15:07:09.259Z,98983.25
2022-09-21T15:10:06.584Z,98980.31
2022-09-21T15:12:58.514Z,98975.59
2022-09-21T15:15:42.834Z,98975.94
2022-09-21T15:18:30.669Z,98978.69
2022-09-21T15:21:01.828Z,98968.47
2022-09-21T15:23:29.870Z,98970.16
2022-09-21T15:26:02.651Z,98966.72
2022-09-21T15:28:58.057Z,98963.28
2022-09-21T15:31:22.328Z,98962.25
2022-09-21T15:33:49.015Z,98967.06
2022-09-21T15:36:27.356Z,98963.84
2022-09-21T15:38:59.452Z,98960.59
2022-09-21T15:41:43.292Z,98963.19
2022-09-21T15:44:21.714Z,98965.25
2022-09-21T15:46:55.301Z,98950.88
2022-09-21T15:49:22.030Z,98951.09
2022-09-21T15:52:16.050Z,98955.50
2022-09-21T15:54:49.077Z,98952.06
2022-09-21T15:57:40.453Z,98954.69
2022-09-21T16:00:18.847Z,98952.91
2022-09-21T16:03:16.345Z,98947.78
2022-09-21T16:05:47.928Z,98948.63
2022-09-21T16:08:28.097Z,98958.19
2022-09-21T16:11:29.052Z,98955.59
2022-09-21T16:14:33.708Z,98948.72
2022-09-21T16:17:07.329Z,98956.44
2022-09-21T16:19:50.789Z,98958.22
2022-09-21T16:22:20.041Z,98963.41
2022-09-21T16:24:51.950Z,98964.28
2022-09-21T16:27:19.624Z,98963.44
2022-09-21T16:29:48.437Z,98961.75
2022-09-21T16:32:18.043Z,98961.66
2022-09-21T16:34:54.863Z,98969.56
2022-09-21T16:37:28.764Z,98967.72
2022-09-21T16:39:56.986Z,98968.63
2022-09-21T16:42:24.000Z,98956.94
2022-09-21T16:44:50.555Z,98970.41
2022-09-21T16:47:25.241Z,98973.94
2022-09-21T16:49:56.489Z,98973.09
2022-09-21T16:52:23.900Z,98970.53
2022-09-21T16:54:51.164Z,98967.16
2022-09-21T16:57:17.960Z,98968.00
2022-09-21T16:59:44.534Z,98973.22
2022-09-21T17:02:12.362Z,98976.72
2022-09-21T17:04:38.959Z,98981.94
2022-09-21T17:07:05.544Z,98977.50
2022-09-21T17:09:35.728Z,98981.03
2022-09-21T17:12:03.438Z,98978.56
2022-09-21T17:14:35.615Z,98978.56
2022-09-21T17:17:19.842Z,98983.69
2022-09-21T17:19:46.899Z,98975.03
2022-09-21T17:22:23.167Z,98978.56
2022-09-21T17:24:52.082Z,98982.03
2022-09-21T17:27:23.477Z,98973.50
2022-09-21T17:29:50.304Z,98977.72
2022-09-21T17:32:21.268Z,98971.78
2022-09-21T17:35:00.444Z,98987.28
2022-09-21T17:37:27.329Z,98984.75
2022-09-21T17:39:53.933Z,98985.69
2022-09-21T17:42:23.022Z,98982.19
2022-09-21T17:45:16.934Z,98990.88
2022-09-21T17:47:43.717Z,98996.94
2022-09-21T17:50:13.384Z,98995.22
2022-09-21T17:52:59.732Z,98990.19
2022-09-21T17:55:26.566Z,98997.06
2022-09-21T17:58:25.104Z,98999.69
2022-09-21T18:01:12.185Z,99004.81
2022-09-21T18:03:42.670Z,99001.34
2022-09-21T18:06:09.974Z,99004.81
2022-09-21T18:08:37.302Z,98997.06
2022-09-21T18:11:13.086Z,98998.84
2022-09-21T18:14:05.604Z,99004.03
2022-09-21T18:16:41.554Z,98999.72
2022-09-21T18:19:14.298Z,99003.22
2022-09-21T18:21:42.292Z,98997.19
2022-09-21T18:24:31.168Z,99002.34
2022-09-21T18:26:58.890Z,99004.09
2022-09-21T18:29:41.056Z,99009.31
2022-09-21T18:32:15.340Z,99010.22
2022-09-21T18:34:54.751Z,99011.91
2022-09-21T18:37:21.352Z,99018.03
2022-09-21T18:40:09.066Z,99015.44
2022-09-21T18:42:40.465Z,99016.38
2022-09-21T18:45:28.643Z,99018.97
2022-09-21T18:48:11.028Z,99021.88
2022-09-21T18:50:50.142Z,99019.06
2022-09-21T18:53:45.428Z,99020.13
2022-09-21T18:56:13.013Z,99016.81
2022-09-21T18:58:40.791Z,99006.69
2022-09-21T19:01:07.889Z,99011.16
2022-09-21T19:03:35.311Z,99014.53
2022-09-21T19:06:26.328Z,99012.84
2022-09-21T19:08:59.583Z,99019.84
2022-09-21T19:11:38.119Z,99017.25
2022-09-21T19:14:35.718Z,99029.38
2022-09-21T19:17:17.674Z,99023.31
2022-09-21T19:19:46.946Z,99022.53
2022-09-21T19:22:14.951Z,99021.75
2022-09-21T19:25:12.390Z,99025.16
2022-09-21T19:27:59.868Z,99032.00
2022-09-21T19:30:26.981Z,99026.78
2022-09-21T19:32:58.239Z,99024.22
2022-09-21T19:35:32.051Z,99032.13
2022-09-21T19:38:01.374Z,99020.91
2022-09-21T19:40:33.104Z,99029.50
2022-09-21T19:43:20.722Z,99019.94
2022-09-21T19:46:05.505Z,99019.09
2022-09-21T19:48:43.634Z,99021.75
2022-09-21T19:51:18.829Z,99023.47
2022-09-21T19:54:08.446Z,99021.75
2022-09-21T19:56:55.607Z,99022.72
2022-09-21T19:59:42.845Z,99021.75
2022-09-21T20:02:22.046Z,99036.53
2022-09-21T20:04:55.788Z,99024.44
2022-09-21T20:07:30.368Z,99045.28
2022-09-21T20:10:22.145Z,99035.69
2022-09-21T20:13:20.751Z,99026.13
2022-09-21T20:16:25.741Z,99026.13
2022-09-21T20:19:01.338Z,99020.13
2022-09-21T20:21:37.305Z,99026.25
2022-09-21T20:24:26.056Z,99028.84
2022-09-21T20:26:52.807Z,99023.59
2022-09-21T20:29:20.007Z,99040.06
2022-09-21T20:31:47.863Z,99021.00
2022-09-21T20:34:14.411Z,99035.03
2022-09-21T20:36:41.015Z,99036.66
2022-09-21T20:39:07.600Z,99040.13
2022-09-21T20:41:34.109Z,99036.66
2022-09-21T20:44:01.730Z,99042.00
2022-09-21T20:46:28.392Z,99044.44
2022-09-21T20:49:00.211Z,99051.25
2022-09-21T20:51:28.159Z,99046.16
2022-09-21T20:53:54.642Z,99054.78
2022-09-21T20:56:21.211Z,99053.84
2022-09-21T20:58:47.723Z,99052.16
2022-09-21T21:01:14.407Z,99051.25
2022-09-21T21:03:40.978Z,99054.78
2022-09-21T21:06:18.715Z,99056.59
2022-09-21T21:08:45.365Z,99050.53
2022-09-21T21:11:11.902Z,99050.47
2022-09-21T21:13:38.389Z,99045.53
2022-09-21T21:16:09.468Z,99052.16
2022-09-21T21:18:41.446Z,99051.38
2022-09-21T21:21:08.014Z,99052.16
2022-09-21T21:23:54.490Z,99048.78
2022-09-21T21:26:26.268Z,99050.47
2022-09-21T21:29:00.012Z,99043.50
2022-09-21T21:31:26.572Z,99036.66
2022-09-21T21:33:53.157Z,99043.56
2022-09-21T21:36:19.737Z,99034.97
2022-09-21T21:38:46.291Z,99036.66
2022-09-21T21:41:14.159Z,99033.31
2022-09-21T21:43:41.189Z,99040.06
2022-09-21T21:46:08.886Z,99038.09
2022-09-21T21:48:36.220Z,99036.31
2022-09-21T21:51:03.384Z,99042.41
2022-09-21T21:53:32.980Z,99040.56
2022-09-21T21:56:06.241Z,99040.56
2022-09-21T21:58:33.602Z,99032.00
2022-09-21T22:01:14.028Z,99029.38
2022-09-21T22:03:40.978Z,99028.38
2022-09-21T22:06:08.836Z,99024.06
2022-09-21T22:08:35.955Z,99021.56
2022-09-21T22:11:02.799Z,99027.53
2022-09-21T22:13:34.279Z,99024.09
2022-09-21T22:16:05.612Z,99025.78
2022-09-21T22:18:32.449Z,99022.34
2022-09-21T22:21:07.990Z,99024.06
2022-09-21T22:23:34.514Z,99030.09
2022-09-21T22:26:08.352Z,99025.78
2022-09-21T22:28:36.438Z,99032.72
2022-09-21T22:31:03.325Z,99035.31
2022-09-21T22:33:33.527Z,99019.03
2022-09-21T22:36:08.674Z,99024.88
2022-09-21T22:38:39.195Z,99027.53
2022-09-21T22:41:10.361Z,99025.03
2022-09-21T22:43:36.948Z,99030.09
2022-09-21T22:46:04.139Z,99014.59
2022-09-21T22:48:30.699Z,99017.97
2022-09-21T22:50:57.232Z,99016.22
2022-09-21T22:53:23.893Z,99020.56
2022-09-21T22:56:06.823Z,99018.84
2022-09-21T22:58:34.126Z,99020.56
2022-09-21T23:01:04.668Z,99018.84
2022-09-21T23:03:31.171Z,99014.53
2022-09-21T23:05:58.243Z,99020.53
2022-09-21T23:08:25.112Z,99016.22
2022-09-21T23:10:51.659Z,99011.91
2022-09-21T23:13:18.267Z,99019.09
2022-09-21T23:15:44.918Z,99024.09
2022-09-21T23:18:11.454Z,99015.31
2022-09-21T23:20:37.943Z,99015.00
2022-09-21T23:23:04.458Z,99006.34
2022-09-21T23:25:30.974Z,99005.41
2022-09-21T23:27:57.704Z,98998.50
2022-09-21T23:30:24.204Z,99001.16
2022-09-21T23:32:53.903Z,98991.66
2022-09-21T23:35:20.405Z,98996.84
2022-09-21T23:37:46.896Z,98993.31
2022-09-21T23:40:13.428Z,98996.84
2022-09-21T23:42:39.940Z,98995.91
2022-09-21T23:45:07.036Z,98995.13
2022-09-21T23:47:35.734Z,99006.34
2022-09-21T23:50:02.189Z,98990.88
2022-09-21T23:52:28.742Z,98995.91
2022-09-21T23:54:55.208Z,98998.78
2022-09-21T23:57:21.745Z,99008.00
2022-09-21T23:59:50.053Z,99005.41
